sensor_id;sensor_type;location;lat;lon;timestamp;temperature;humidity
8402;DHT22;4238;48.404;9.498;2024-03-22T05:02:42;3.80;99.90
8402;DHT22;4238;48.404;9.498;2024-03-22T05:05:09;3.80;99.90
8402;DHT22;4238;48.404;9.498;2024-03-22T05:07:35;3.80;99.90
8402;DHT22;4238;48.404;9.498;2024-03-22T05:10:02;3.90;99.90
8402;DHT22;4238;48.404;9.498;2024-03-22T05:12:28;3.90;99.90
8402;DHT22;4238;48.404;9.498;2024-03-22T05:14:55;3.90;99.90
8402;DHT22;4238;48.404;9.498;2024-03-22T05:17:21;3.90;99.90
8402;DHT22;4238;48.404;9.498;2024-03-22T05:19:49;3.90;99.90
8402;DHT22;4238;48.404;9.498;2024-03-22T05:22:15;4.10;99.90
8402;DHT22;4238;48.404;9.498;2024-03-22T05:24:42;4.10;99.90
8402;DHT22;4238;48.404;9.498;2024-03-22T05:27:08;4.10;99.90
8402;DHT22;4238;48.404;9.498;2024-03-22T05:29:35;4.10;99.90
8402;DHT22;4238;48.404;9.498;2024-03-22T05:32:01;4.00;99.90
8402;DHT22;4238;48.404;9.498;2024-03-22T05:34:29;4.00;99.90
8402;DHT22;4238;48.404;9.498;2024-03-22T05:36:56;4.00;99.90
8402;DHT22;4238;48.404;9.498;2024-03-22T05:39:23;4.20;99.90
8402;DHT22;4238;48.404;9.498;2024-03-22T05:41:49;4.10;99.90
8402;DHT22;4238;48.404;9.498;2024-03-22T05:44:16;4.10;99.90
8402;DHT22;4238;48.404;9.498;2024-03-22T05:46:42;4.10;99.90
8402;DHT22;4238;48.404;9.498;2024-03-22T05:49:09;4.20;99.90
8402;DHT22;4238;48.404;9.498;2024-03-22T05:51:35;4.20;99.90
8402;DHT22;4238;48.404;9.498;2024-03-22T05:54:03;4.20;99.90
8402;DHT22;4238;48.404;9.498;2024-03-22T05:56:29;4.20;99.90
8402;DHT22;4238;48.404;9.498;2024-03-22T05:58:55;4.20;99.90
8402;DHT22;4238;48.404;9.498;2024-03-22T06:01:21;4.20;99.90
8402;DHT22;4238;48.404;9.498;2024-03-22T06:03:48;4.20;99.90
8402;DHT22;4238;48.404;9.498;2024-03-22T06:06:14;4.20;99.90
8402;DHT22;4238;48.404;9.498;2024-03-22T06:08:41;4.20;99.90
8402;DHT22;4238;48.404;9.498;2024-03-22T06:11:10;4.30;99.90
8402;DHT22;4238;48.404;9.498;2024-03-22T06:13:38;4.40;99.90
8402;DHT22;4238;48.404;9.498;2024-03-22T06:16:04;4.40;99.90
8402;DHT22;4238;48.404;9.498;2024-03-22T06:18:31;4.40;99.90
8402;DHT22;4238;48.404;9.498;2024-03-22T06:20:57;4.50;99.90
8402;DHT22;4238;48.404;9.498;2024-03-22T06:23:24;4.60;99.90
8402;DHT22;4238;48.404;9.498;2024-03-22T06:25:53;4.80;99.90
8402;DHT22;4238;48.404;9.498;2024-03-22T06:28:22;4.90;99.90
8402;DHT22;4238;48.404;9.498;2024-03-22T06:30:48;5.00;99.90
8402;DHT22;4238;48.404;9.498;2024-03-22T06:33:15;5.10;99.90
8402;DHT22;4238;48.404;9.498;2024-03-22T06:35:41;5.00;99.90
8402;DHT22;4238;48.404;9.498;2024-03-22T06:38:08;5.10;99.90
8402;DHT22;4238;48.404;9.498;2024-03-22T06:40:34;5.20;99.90
8402;DHT22;4238;48.404;9.498;2024-03-22T06:43:01;5.30;99.90
8402;DHT22;4238;48.404;9.498;2024-03-22T06:45:28;5.40;99.90
8402;DHT22;4238;48.404;9.498;2024-03-22T06:47:55;5.70;99.90
8402;DHT22;4238;48.404;9.498;2024-03-22T06:50:21;5.90;99.90
8402;DHT22;4238;48.404;9.498;2024-03-22T06:52:50;6.00;96.50
8402;DHT22;4238;48.404;9.498;2024-03-22T06:55:16;6.10;94.10
8402;DHT22;4238;48.404;9.498;2024-03-22T06:57:44;6.20;96.90
8402;DHT22;4238;48.404;9.498;2024-03-22T07:00:11;6.20;98.60
8402;DHT22;4238;48.404;9.498;2024-03-22T07:02:40;6.40;99.90
8402;DHT22;4238;48.404;9.498;2024-03-22T07:05:07;6.60;99.90
8402;DHT22;4238;48.404;9.498;2024-03-22T07:07:34;6.90;99.90
8402;DHT22;4238;48.404;9.498;2024-03-22T07:09:59;7.30;95.00
8402;DHT22;4238;48.404;9.498;2024-03-22T07:12:26;7.40;78.10
8402;DHT22;4238;48.404;9.498;2024-03-22T07:14:53;7.50;80.10
8402;DHT22;4238;48.404;9.498;2024-03-22T07:17:19;7.70;85.60
8402;DHT22;4238;48.404;9.498;2024-03-22T07:19:50;7.90;75.00
8402;DHT22;4238;48.404;9.498;2024-03-22T07:22:17;8.10;62.90
8402;DHT22;4238;48.404;9.498;2024-03-22T07:24:43;8.40;64.10
8402;DHT22;4238;48.404;9.498;2024-03-22T07:27:10;8.70;51.60
8402;DHT22;4238;48.404;9.498;2024-03-22T07:29:36;9.00;51.10
8402;DHT22;4238;48.404;9.498;2024-03-22T07:32:03;9.30;25.00
8402;DHT22;4238;48.404;9.498;2024-03-22T07:34:31;9.40;11.00
8402;DHT22;4238;48.404;9.498;2024-03-22T07:36:58;9.60;16.60
8402;DHT22;4238;48.404;9.498;2024-03-22T07:39:25;9.80;1.00
8402;DHT22;4238;48.404;9.498;2024-03-22T07:41:51;9.90;1.00
8402;DHT22;4238;48.404;9.498;2024-03-22T07:44:18;10.10;1.00
8402;DHT22;4238;48.404;9.498;2024-03-22T07:46:45;10.20;1.00
8402;DHT22;4238;48.404;9.498;2024-03-22T07:49:12;10.60;1.00
8402;DHT22;4238;48.404;9.498;2024-03-22T07:51:38;10.90;1.00
8402;DHT22;4238;48.404;9.498;2024-03-22T07:54:06;11.20;1.00
8402;DHT22;4238;48.404;9.498;2024-03-22T07:56:32;11.50;1.00
8402;DHT22;4238;48.404;9.498;2024-03-22T07:58:59;11.90;1.00
8402;DHT22;4238;48.404;9.498;2024-03-22T08:01:25;12.10;1.00
8402;DHT22;4238;48.404;9.498;2024-03-22T08:03:52;12.40;1.00
8402;DHT22;4238;48.404;9.498;2024-03-22T08:06:18;12.60;99.90
8402;DHT22;4238;48.404;9.498;2024-03-22T08:08:45;12.80;1.00
8402;DHT22;4238;48.404;9.498;2024-03-22T08:11:13;13.10;1.00
8402;DHT22;4238;48.404;9.498;2024-03-22T08:13:41;13.30;1.00
8402;DHT22;4238;48.404;9.498;2024-03-22T08:16:07;13.50;1.00
8402;DHT22;4238;48.404;9.498;2024-03-22T08:18:34;14.00;1.00
8402;DHT22;4238;48.404;9.498;2024-03-22T08:21:00;14.30;1.00
8402;DHT22;4238;48.404;9.498;2024-03-22T08:23:27;14.50;99.90
8402;DHT22;4238;48.404;9.498;2024-03-22T08:25:53;14.70;1.00
8402;DHT22;4238;48.404;9.498;2024-03-22T08:28:21;15.10;1.00
8402;DHT22;4238;48.404;9.498;2024-03-22T08:30:47;15.40;1.00
8402;DHT22;4238;48.404;9.498;2024-03-22T08:33:14;15.80;1.00
8402;DHT22;4238;48.404;9.498;2024-03-22T08:35:40;15.90;99.90
8402;DHT22;4238;48.404;9.498;2024-03-22T08:38:06;15.90;1.00
8402;DHT22;4238;48.404;9.498;2024-03-22T08:40:36;16.10;1.00
8402;DHT22;4238;48.404;9.498;2024-03-22T08:43:03;16.30;1.00
8402;DHT22;4238;48.404;9.498;2024-03-22T08:45:30;16.20;99.90
8402;DHT22;4238;48.404;9.498;2024-03-22T08:47:57;16.40;99.90
8402;DHT22;4238;48.404;9.498;2024-03-22T08:50:23;16.70;99.90
8402;DHT22;4238;48.404;9.498;2024-03-22T08:52:50;16.70;99.90
8402;DHT22;4238;48.404;9.498;2024-03-22T08:55:17;16.60;99.90
8402;DHT22;4238;48.404;9.498;2024-03-22T08:57:43;16.70;99.90
8402;DHT22;4238;48.404;9.498;2024-03-22T09:00:10;16.80;99.90
8402;DHT22;4238;48.404;9.498;2024-03-22T09:02:38;17.00;46.50
8402;DHT22;4238;48.404;9.498;2024-03-22T09:05:05;16.90;1.00
8402;DHT22;4238;48.404;9.498;2024-03-22T09:07:35;16.80;1.00
8402;DHT22;4238;48.404;9.498;2024-03-22T09:10:00;16.50;1.00
8402;DHT22;4238;48.404;9.498;2024-03-22T09:12:27;16.50;1.00
8402;DHT22;4238;48.404;9.498;2024-03-22T09:14:53;16.70;1.00
8402;DHT22;4238;48.404;9.498;2024-03-22T09:17:20;16.80;1.00
8402;DHT22;4238;48.404;9.498;2024-03-22T09:19:47;17.00;1.00
8402;DHT22;4238;48.404;9.498;2024-03-22T09:22:14;17.20;1.00
8402;DHT22;4238;48.404;9.498;2024-03-22T09:24:40;17.30;1.00
8402;DHT22;4238;48.404;9.498;2024-03-22T09:27:07;17.70;1.00
8402;DHT22;4238;48.404;9.498;2024-03-22T09:29:35;17.20;1.00
8402;DHT22;4238;48.404;9.498;2024-03-22T09:32:02;17.70;99.90
8402;DHT22;4238;48.404;9.498;2024-03-22T09:34:27;18.10;99.90
8402;DHT22;4238;48.404;9.498;2024-03-22T09:36:56;18.20;99.90
8402;DHT22;4238;48.404;9.498;2024-03-22T09:39:22;18.30;99.90
8402;DHT22;4238;48.404;9.498;2024-03-22T09:41:50;18.40;99.90
8402;DHT22;4238;48.404;9.498;2024-03-22T09:44:18;18.40;99.90
8402;DHT22;4238;48.404;9.498;2024-03-22T09:46:50;18.70;99.90
8402;DHT22;4238;48.404;9.498;2024-03-22T09:49:16;18.80;96.00
8402;DHT22;4238;48.404;9.498;2024-03-22T09:51:44;18.90;44.80
8402;DHT22;4238;48.404;9.498;2024-03-22T09:54:11;19.00;16.50
8402;DHT22;4238;48.404;9.498;2024-03-22T09:56:38;19.10;1.00
8402;DHT22;4238;48.404;9.498;2024-03-22T09:59:05;19.30;7.40
8402;DHT22;4238;48.404;9.498;2024-03-22T10:01:33;19.30;1.00
8402;DHT22;4238;48.404;9.498;2024-03-22T10:04:00;19.50;1.00
8402;DHT22;4238;48.404;9.498;2024-03-22T10:06:27;19.70;1.00
8402;DHT22;4238;48.404;9.498;2024-03-22T10:08:54;19.80;1.00
8402;DHT22;4238;48.404;9.498;2024-03-22T10:11:22;19.80;1.00
8402;DHT22;4238;48.404;9.498;2024-03-22T10:13:48;19.90;1.00
8402;DHT22;4238;48.404;9.498;2024-03-22T10:16:16;20.00;1.00
8402;DHT22;4238;48.404;9.498;2024-03-22T10:18:42;19.70;1.00
8402;DHT22;4238;48.404;9.498;2024-03-22T10:21:09;19.80;1.00
8402;DHT22;4238;48.404;9.498;2024-03-22T10:23:35;20.20;1.00
8402;DHT22;4238;48.404;9.498;2024-03-22T10:26:02;19.90;1.00
8402;DHT22;4238;48.404;9.498;2024-03-22T10:28:30;20.20;1.00
8402;DHT22;4238;48.404;9.498;2024-03-22T10:30:57;20.60;1.00
8402;DHT22;4238;48.404;9.498;2024-03-22T10:33:23;20.90;1.00
8402;DHT22;4238;48.404;9.498;2024-03-22T10:35:52;21.20;1.00
8402;DHT22;4238;48.404;9.498;2024-03-22T10:38:19;20.30;1.00
8402;DHT22;4238;48.404;9.498;2024-03-22T10:40:47;20.20;1.00
8402;DHT22;4238;48.404;9.498;2024-03-22T10:43:13;20.20;1.00
8402;DHT22;4238;48.404;9.498;2024-03-22T10:45:41;20.30;1.00
8402;DHT22;4238;48.404;9.498;2024-03-22T10:48:09;20.20;1.00
8402;DHT22;4238;48.404;9.498;2024-03-22T10:50:39;20.40;1.00
8402;DHT22;4238;48.404;9.498;2024-03-22T10:53:07;20.70;1.00
8402;DHT22;4238;48.404;9.498;2024-03-22T10:55:37;21.00;1.00
8402;DHT22;4238;48.404;9.498;2024-03-22T10:58:04;20.90;1.00
8402;DHT22;4238;48.404;9.498;2024-03-22T11:00:32;20.80;1.00
8402;DHT22;4238;48.404;9.498;2024-03-22T11:03:02;20.60;1.00
8402;DHT22;4238;48.404;9.498;2024-03-22T11:05:29;20.50;1.00
8402;DHT22;4238;48.404;9.498;2024-03-22T11:07:59;20.30;1.00
8402;DHT22;4238;48.404;9.498;2024-03-22T11:10:29;20.10;1.00
8402;DHT22;4238;48.404;9.498;2024-03-22T11:12:55;20.20;1.00
8402;DHT22;4238;48.404;9.498;2024-03-22T11:15:22;20.20;1.00
8402;DHT22;4238;48.404;9.498;2024-03-22T11:17:48;20.10;1.00
8402;DHT22;4238;48.404;9.498;2024-03-22T11:20:17;20.20;1.00
8402;DHT22;4238;48.404;9.498;2024-03-22T11:22:43;20.20;1.00
8402;DHT22;4238;48.404;9.498;2024-03-22T11:25:10;20.40;1.00
8402;DHT22;4238;48.404;9.498;2024-03-22T11:27:36;20.40;1.00
8402;DHT22;4238;48.404;9.498;2024-03-22T11:30:04;20.40;1.00
8402;DHT22;4238;48.404;9.498;2024-03-22T11:32:30;20.40;1.00
8402;DHT22;4238;48.404;9.498;2024-03-22T11:34:57;20.60;99.90
8402;DHT22;4238;48.404;9.498;2024-03-22T11:37:24;20.60;99.90
8402;DHT22;4238;48.404;9.498;2024-03-22T11:39:51;20.40;99.90
8402;DHT22;4238;48.404;9.498;2024-03-22T11:42:17;20.90;99.90
8402;DHT22;4238;48.404;9.498;2024-03-22T11:44:44;21.10;99.90
8402;DHT22;4238;48.404;9.498;2024-03-22T11:47:11;21.40;99.90
8402;DHT22;4238;48.404;9.498;2024-03-22T11:49:38;21.60;99.90
8402;DHT22;4238;48.404;9.498;2024-03-22T11:52:04;21.60;99.90
8402;DHT22;4238;48.404;9.498;2024-03-22T11:54:32;21.20;99.90
8402;DHT22;4238;48.404;9.498;2024-03-22T11:56:58;21.60;99.90
8402;DHT22;4238;48.404;9.498;2024-03-22T11:59:25;21.70;99.90
8402;DHT22;4238;48.404;9.498;2024-03-22T12:01:51;21.80;99.90
8402;DHT22;4238;48.404;9.498;2024-03-22T12:04:18;21.80;99.90
8402;DHT22;4238;48.404;9.498;2024-03-22T12:06:44;22.00;99.90
8402;DHT22;4238;48.404;9.498;2024-03-22T12:09:11;22.20;99.90
8402;DHT22;4238;48.404;9.498;2024-03-22T12:11:39;22.10;99.90
8402;DHT22;4238;48.404;9.498;2024-03-22T12:14:06;22.10;99.90
8402;DHT22;4238;48.404;9.498;2024-03-22T12:16:32;22.00;99.90
8402;DHT22;4238;48.404;9.498;2024-03-22T12:18:59;21.80;99.90
8402;DHT22;4238;48.404;9.498;2024-03-22T12:21:25;21.50;99.90
8402;DHT22;4238;48.404;9.498;2024-03-22T12:23:52;21.40;99.90
8402;DHT22;4238;48.404;9.498;2024-03-22T12:26:21;21.10;99.90
8402;DHT22;4238;48.404;9.498;2024-03-22T12:28:49;21.00;99.90
8402;DHT22;4238;48.404;9.498;2024-03-22T12:31:17;20.80;99.90
8402;DHT22;4238;48.404;9.498;2024-03-22T12:33:44;20.80;99.90
8402;DHT22;4238;48.404;9.498;2024-03-22T12:36:10;20.70;99.90
8402;DHT22;4238;48.404;9.498;2024-03-22T12:38:37;20.70;99.90
8402;DHT22;4238;48.404;9.498;2024-03-22T12:41:03;20.30;99.90
8402;DHT22;4238;48.404;9.498;2024-03-22T12:43:29;20.20;99.90
8402;DHT22;4238;48.404;9.498;2024-03-22T12:45:56;20.10;99.90
8402;DHT22;4238;48.404;9.498;2024-03-22T12:48:23;20.00;99.90
8402;DHT22;4238;48.404;9.498;2024-03-22T12:50:49;20.00;99.90
8402;DHT22;4238;48.404;9.498;2024-03-22T12:53:16;20.00;99.90
8402;DHT22;4238;48.404;9.498;2024-03-22T12:55:42;19.90;99.90
8402;DHT22;4238;48.404;9.498;2024-03-22T12:58:09;19.90;99.90
8402;DHT22;4238;48.404;9.498;2024-03-22T13:00:35;20.20;99.90
8402;DHT22;4238;48.404;9.498;2024-03-22T13:03:04;20.30;99.90
8402;DHT22;4238;48.404;9.498;2024-03-22T13:05:30;20.60;99.90
8402;DHT22;4238;48.404;9.498;2024-03-22T13:07:57;20.70;99.90
8402;DHT22;4238;48.404;9.498;2024-03-22T13:10:22;20.80;99.90
8402;DHT22;4238;48.404;9.498;2024-03-22T13:12:50;20.90;99.90
8402;DHT22;4238;48.404;9.498;2024-03-22T13:15:16;20.90;99.90
8402;DHT22;4238;48.404;9.498;2024-03-22T13:17:43;21.10;99.90
8402;DHT22;4238;48.404;9.498;2024-03-22T13:20:11;21.30;99.90
8402;DHT22;4238;48.404;9.498;2024-03-22T13:22:40;21.00;99.90
8402;DHT22;4238;48.404;9.498;2024-03-22T13:25:06;20.90;99.90
8402;DHT22;4238;48.404;9.498;2024-03-22T13:27:36;20.40;99.90
8402;DHT22;4238;48.404;9.498;2024-03-22T13:30:05;20.30;99.90
8402;DHT22;4238;48.404;9.498;2024-03-22T13:32:35;20.10;99.90
8402;DHT22;4238;48.404;9.498;2024-03-22T13:35:01;20.00;99.90
8402;DHT22;4238;48.404;9.498;2024-03-22T13:37:31;20.00;99.90
8402;DHT22;4238;48.404;9.498;2024-03-22T13:39:57;20.00;99.90
8402;DHT22;4238;48.404;9.498;2024-03-22T13:42:25;20.20;99.90
8402;DHT22;4238;48.404;9.498;2024-03-22T13:44:52;20.30;99.90
8402;DHT22;4238;48.404;9.498;2024-03-22T13:47:19;20.30;99.90
8402;DHT22;4238;48.404;9.498;2024-03-22T13:49:45;20.20;99.90
8402;DHT22;4238;48.404;9.498;2024-03-22T13:52:12;20.10;99.90
8402;DHT22;4238;48.404;9.498;2024-03-22T13:54:41;20.10;99.90
8402;DHT22;4238;48.404;9.498;2024-03-22T13:57:08;20.30;99.90
8402;DHT22;4238;48.404;9.498;2024-03-22T13:59:34;20.40;99.90
8402;DHT22;4238;48.404;9.498;2024-03-22T14:02:03;20.30;99.90
8402;DHT22;4238;48.404;9.498;2024-03-22T14:04:29;20.10;99.90
8402;DHT22;4238;48.404;9.498;2024-03-22T14:06:56;20.10;99.90
8402;DHT22;4238;48.404;9.498;2024-03-22T14:09:22;20.10;99.90
8402;DHT22;4238;48.404;9.498;2024-03-22T14:11:50;20.30;99.90
8402;DHT22;4238;48.404;9.498;2024-03-22T14:14:16;20.40;99.90
8402;DHT22;4238;48.404;9.498;2024-03-22T14:16:43;20.50;99.90
8402;DHT22;4238;48.404;9.498;2024-03-22T14:19:09;20.70;99.90
8402;DHT22;4238;48.404;9.498;2024-03-22T14:21:36;20.90;99.90
8402;DHT22;4238;48.404;9.498;2024-03-22T14:24:04;20.90;99.90
8402;DHT22;4238;48.404;9.498;2024-03-22T14:26:31;20.90;99.90
8402;DHT22;4238;48.404;9.498;2024-03-22T14:28:59;21.00;99.90
8402;DHT22;4238;48.404;9.498;2024-03-22T14:31:26;21.10;99.90
8402;DHT22;4238;48.404;9.498;2024-03-22T14:33:52;21.10;99.90
8402;DHT22;4238;48.404;9.498;2024-03-22T14:36:19;20.90;99.90
8402;DHT22;4238;48.404;9.498;2024-03-22T14:38:45;20.90;99.90
8402;DHT22;4238;48.404;9.498;2024-03-22T14:41:12;20.90;99.90
8402;DHT22;4238;48.404;9.498;2024-03-22T14:43:37;20.80;99.90
8402;DHT22;4238;48.404;9.498;2024-03-22T14:46:06;20.80;99.90
8402;DHT22;4238;48.404;9.498;2024-03-22T14:48:32;20.70;99.90
8402;DHT22;4238;48.404;9.498;2024-03-22T14:50:59;20.40;99.90
8402;DHT22;4238;48.404;9.498;2024-03-22T14:53:26;20.40;99.90
8402;DHT22;4238;48.404;9.498;2024-03-22T14:55:53;20.40;99.90
8402;DHT22;4238;48.404;9.498;2024-03-22T14:58:20;20.30;99.90
8402;DHT22;4238;48.404;9.498;2024-03-22T15:00:53;20.30;99.90
8402;DHT22;4238;48.404;9.498;2024-03-22T15:03:21;20.30;99.90
8402;DHT22;4238;48.404;9.498;2024-03-22T15:05:49;20.00;99.90
8402;DHT22;4238;48.404;9.498;2024-03-22T15:08:15;19.70;99.90
8402;DHT22;4238;48.404;9.498;2024-03-22T15:10:42;19.70;99.90
8402;DHT22;4238;48.404;9.498;2024-03-22T15:13:09;19.60;99.90
8402;DHT22;4238;48.404;9.498;2024-03-22T15:15:36;19.70;99.90
8402;DHT22;4238;48.404;9.498;2024-03-22T15:18:02;19.70;99.90
8402;DHT22;4238;48.404;9.498;2024-03-22T15:20:32;19.70;99.90
8402;DHT22;4238;48.404;9.498;2024-03-22T15:22:58;19.60;99.90
8402;DHT22;4238;48.404;9.498;2024-03-22T15:25:25;19.70;99.90
8402;DHT22;4238;48.404;9.498;2024-03-22T15:27:51;19.60;99.90
8402;DHT22;4238;48.404;9.498;2024-03-22T15:30:19;19.60;99.90
8402;DHT22;4238;48.404;9.498;2024-03-22T15:32:45;19.40;99.90
8402;DHT22;4238;48.404;9.498;2024-03-22T15:35:12;19.50;99.90
8402;DHT22;4238;48.404;9.498;2024-03-22T15:37:40;19.50;99.90
8402;DHT22;4238;48.404;9.498;2024-03-22T15:40:08;19.60;99.90
8402;DHT22;4238;48.404;9.498;2024-03-22T15:42:34;19.50;99.90
8402;DHT22;4238;48.404;9.498;2024-03-22T15:45:02;19.20;99.90
8402;DHT22;4238;48.404;9.498;2024-03-22T15:47:29;19.00;99.90
8402;DHT22;4238;48.404;9.498;2024-03-22T15:49:58;18.80;99.90
8402;DHT22;4238;48.404;9.498;2024-03-22T15:52:24;18.70;99.90
8402;DHT22;4238;48.404;9.498;2024-03-22T15:54:54;18.50;99.90
8402;DHT22;4238;48.404;9.498;2024-03-22T15:57:20;18.60;99.90
8402;DHT22;4238;48.404;9.498;2024-03-22T15:59:47;18.50;99.90
8402;DHT22;4238;48.404;9.498;2024-03-22T16:02:13;18.50;99.90
8402;DHT22;4238;48.404;9.498;2024-03-22T16:04:40;18.40;99.90
8402;DHT22;4238;48.404;9.498;2024-03-22T16:07:06;18.30;99.90
8402;DHT22;4238;48.404;9.498;2024-03-22T16:09:35;18.30;99.90
8402;DHT22;4238;48.404;9.498;2024-03-22T16:12:03;18.40;99.90
8402;DHT22;4238;48.404;9.498;2024-03-22T16:14:30;18.50;99.90
8402;DHT22;4238;48.404;9.498;2024-03-22T16:16:56;18.60;99.90
8402;DHT22;4238;48.404;9.498;2024-03-22T16:19:23;18.50;99.90
8402;DHT22;4238;48.404;9.498;2024-03-22T16:21:49;18.20;99.90
8402;DHT22;4238;48.404;9.498;2024-03-22T16:24:16;18.20;99.90
8402;DHT22;4238;48.404;9.498;2024-03-22T16:26:45;18.10;99.90
8402;DHT22;4238;48.404;9.498;2024-03-22T16:29:13;17.90;99.90
8402;DHT22;4238;48.404;9.498;2024-03-22T16:31:40;17.70;99.90
8402;DHT22;4238;48.404;9.498;2024-03-22T16:34:09;17.40;99.90
8402;DHT22;4238;48.404;9.498;2024-03-22T16:36:34;17.20;99.90
8402;DHT22;4238;48.404;9.498;2024-03-22T16:39:02;17.10;99.90
8402;DHT22;4238;48.404;9.498;2024-03-22T16:41:28;17.00;99.90
8402;DHT22;4238;48.404;9.498;2024-03-22T16:43:56;16.80;99.90
8402;DHT22;4238;48.404;9.498;2024-03-22T16:46:24;16.70;99.90
8402;DHT22;4238;48.404;9.498;2024-03-22T16:48:51;16.60;99.90
8402;DHT22;4238;48.404;9.498;2024-03-22T16:51:17;16.50;99.90
8402;DHT22;4238;48.404;9.498;2024-03-22T16:53:44;16.40;99.90
8402;DHT22;4238;48.404;9.498;2024-03-22T16:56:10;16.30;99.90
8402;DHT22;4238;48.404;9.498;2024-03-22T16:58:38;16.20;99.90
8402;DHT22;4238;48.404;9.498;2024-03-22T17:01:04;16.10;99.90
8402;DHT22;4238;48.404;9.498;2024-03-22T17:03:32;16.10;99.90
8402;DHT22;4238;48.404;9.498;2024-03-22T17:06:00;16.10;99.90
8402;DHT22;4238;48.404;9.498;2024-03-22T17:08:27;16.00;99.90
8402;DHT22;4238;48.404;9.498;2024-03-22T17:10:53;15.90;99.90
8402;DHT22;4238;48.404;9.498;2024-03-22T17:13:21;15.90;99.90
8402;DHT22;4238;48.404;9.498;2024-03-22T17:15:47;15.80;99.90
8402;DHT22;4238;48.404;9.498;2024-03-22T17:18:14;15.80;99.90
8402;DHT22;4238;48.404;9.498;2024-03-22T17:20:41;15.70;99.90
8402;DHT22;4238;48.404;9.498;2024-03-22T17:23:08;15.60;99.90
8402;DHT22;4238;48.404;9.498;2024-03-22T17:25:34;15.40;99.90
8402;DHT22;4238;48.404;9.498;2024-03-22T17:28:02;15.20;99.90
8402;DHT22;4238;48.404;9.498;2024-03-22T17:30:28;15.00;99.90
8402;DHT22;4238;48.404;9.498;2024-03-22T17:32:55;14.90;99.90
8402;DHT22;4238;48.404;9.498;2024-03-22T17:35:21;14.70;99.90
8402;DHT22;4238;48.404;9.498;2024-03-22T17:37:49;14.60;99.90
8402;DHT22;4238;48.404;9.498;2024-03-22T17:40:15;14.40;99.90
8402;DHT22;4238;48.404;9.498;2024-03-22T17:42:42;14.30;99.90
8402;DHT22;4238;48.404;9.498;2024-03-22T17:45:09;14.20;99.90
8402;DHT22;4238;48.404;9.498;2024-03-22T17:47:35;14.20;99.90
8402;DHT22;4238;48.404;9.498;2024-03-22T17:50:02;14.20;99.90
8402;DHT22;4238;48.404;9.498;2024-03-22T17:52:29;14.30;99.90
8402;DHT22;4238;48.404;9.498;2024-03-22T17:54:57;14.20;99.90
8402;DHT22;4238;48.404;9.498;2024-03-22T17:57:23;14.10;99.90
8402;DHT22;4238;48.404;9.498;2024-03-22T17:59:51;14.00;99.90
8402;DHT22;4238;48.404;9.498;2024-03-22T18:02:17;13.90;99.90
8402;DHT22;4238;48.404;9.498;2024-03-22T18:04:44;13.70;99.90
8402;DHT22;4238;48.404;9.498;2024-03-22T18:07:10;13.60;99.90
8402;DHT22;4238;48.404;9.498;2024-03-22T18:09:37;13.40;99.90
8402;DHT22;4238;48.404;9.498;2024-03-22T18:12:04;13.20;1.00
8402;DHT22;4238;48.404;9.498;2024-03-22T18:14:31;13.00;1.00
8402;DHT22;4238;48.404;9.498;2024-03-22T18:16:57;12.90;1.00
8402;DHT22;4238;48.404;9.498;2024-03-22T18:19:26;12.70;1.00
8402;DHT22;4238;48.404;9.498;2024-03-22T18:21:52;12.60;1.00
8402;DHT22;4238;48.404;9.498;2024-03-22T18:24:20;12.50;1.00
8402;DHT22;4238;48.404;9.498;2024-03-22T18:26:47;12.30;1.00
8402;DHT22;4238;48.404;9.498;2024-03-22T18:29:14;12.10;1.00
8402;DHT22;4238;48.404;9.498;2024-03-22T18:31:41;12.10;1.00
8402;DHT22;4238;48.404;9.498;2024-03-22T18:34:07;12.00;1.00
8402;DHT22;4238;48.404;9.498;2024-03-22T18:36:34;11.90;1.00
8402;DHT22;4238;48.404;9.498;2024-03-22T18:39:00;11.80;1.00
8402;DHT22;4238;48.404;9.498;2024-03-22T18:41:27;11.70;1.00
8402;DHT22;4238;48.404;9.498;2024-03-22T18:43:53;11.60;13.20
8402;DHT22;4238;48.404;9.498;2024-03-22T18:46:21;11.60;99.90
8402;DHT22;4238;48.404;9.498;2024-03-22T18:48:47;11.60;99.90
8402;DHT22;4238;48.404;9.498;2024-03-22T18:51:14;11.40;1.00
8402;DHT22;4238;48.404;9.498;2024-03-22T18:53:41;11.30;1.00
8402;DHT22;4238;48.404;9.498;2024-03-22T18:56:07;11.10;1.00
8402;DHT22;4238;48.404;9.498;2024-03-22T18:58:35;11.00;99.90
8402;DHT22;4238;48.404;9.498;2024-03-22T19:01:04;10.90;2.80
8402;DHT22;4238;48.404;9.498;2024-03-22T19:03:31;10.90;1.00
8402;DHT22;4238;48.404;9.498;2024-03-22T19:05:58;10.70;99.90
8402;DHT22;4238;48.404;9.498;2024-03-22T19:08:24;10.70;99.90
8402;DHT22;4238;48.404;9.498;2024-03-22T19:10:51;10.50;99.90
8402;DHT22;4238;48.404;9.498;2024-03-22T19:13:17;10.30;99.90
8402;DHT22;4238;48.404;9.498;2024-03-22T19:15:52;10.20;2.20
8402;DHT22;4238;48.404;9.498;2024-03-22T19:18:18;10.10;99.90
8402;DHT22;4238;48.404;9.498;2024-03-22T19:20:47;9.90;1.00
8402;DHT22;4238;48.404;9.498;2024-03-22T19:23:13;9.80;99.90
8402;DHT22;4238;48.404;9.498;2024-03-22T19:25:40;9.70;1.00
8402;DHT22;4238;48.404;9.498;2024-03-22T19:28:06;9.60;1.00
8402;DHT22;4238;48.404;9.498;2024-03-22T19:30:34;9.50;99.90
8402;DHT22;4238;48.404;9.498;2024-03-22T19:33:00;9.40;99.90
8402;DHT22;4238;48.404;9.498;2024-03-22T19:35:28;9.30;95.20
8402;DHT22;4238;48.404;9.498;2024-03-22T19:37:55;9.20;1.00
8402;DHT22;4238;48.404;9.498;2024-03-22T19:40:22;9.20;99.90
8402;DHT22;4238;48.404;9.498;2024-03-22T19:42:48;9.20;1.00
8402;DHT22;4238;48.404;9.498;2024-03-22T19:45:15;9.10;99.90
8402;DHT22;4238;48.404;9.498;2024-03-22T19:47:41;9.00;95.50
8402;DHT22;4238;48.404;9.498;2024-03-22T19:50:08;9.00;1.00
8402;DHT22;4238;48.404;9.498;2024-03-22T19:52:34;9.00;1.00
8402;DHT22;4238;48.404;9.498;2024-03-22T19:55:04;8.90;99.90
8402;DHT22;4238;48.404;9.498;2024-03-22T19:57:31;8.80;1.00
8402;DHT22;4238;48.404;9.498;2024-03-22T19:59:57;8.80;1.00
8402;DHT22;4238;48.404;9.498;2024-03-22T20:02:24;8.70;1.00
8402;DHT22;4238;48.404;9.498;2024-03-22T20:04:50;8.60;43.00
8402;DHT22;4238;48.404;9.498;2024-03-22T20:07:16;8.50;22.90
8402;DHT22;4238;48.404;9.498;2024-03-22T20:09:43;8.40;99.90
8402;DHT22;4238;48.404;9.498;2024-03-22T20:12:10;8.40;1.00
8402;DHT22;4238;48.404;9.498;2024-03-22T20:14:37;8.40;99.90
8402;DHT22;4238;48.404;9.498;2024-03-22T20:17:04;8.30;99.90
8402;DHT22;4238;48.404;9.498;2024-03-22T20:19:31;8.30;99.90
8402;DHT22;4238;48.404;9.498;2024-03-22T20:21:57;8.20;1.00
8402;DHT22;4238;48.404;9.498;2024-03-22T20:24:25;8.10;1.00
8402;DHT22;4238;48.404;9.498;2024-03-22T20:26:50;8.10;99.90
8402;DHT22;4238;48.404;9.498;2024-03-22T20:29:19;8.20;99.90
8402;DHT22;4238;48.404;9.498;2024-03-22T20:31:44;8.20;1.00
8402;DHT22;4238;48.404;9.498;2024-03-22T20:34:12;8.00;99.90
8402;DHT22;4238;48.404;9.498;2024-03-22T20:36:38;8.00;99.90
